createdAt,value
2019-02-16T00:00:04.134Z,100.8
2019-02-16T00:01:03.336Z,100.8
2019-02-16T00:02:03.003Z,100.5
2019-02-16T00:03:03.023Z,101.7
2019-02-16T00:04:02.957Z,102.9
2019-02-16T00:05:03.510Z,102.4
2019-02-16T00:06:03.793Z,102.4
2019-02-16T00:07:03.417Z,98.7
2019-02-16T00:08:03.736Z,98.7
2019-02-16T00:09:03.181Z,98.7
2019-02-16T00:10:03.744Z,97.5
2019-02-16T00:11:03.041Z,98
2019-02-16T00:12:03.254Z,98
2019-02-16T00:13:03.476Z,99.1
2019-02-16T00:14:03.615Z,99.8
2019-02-16T00:15:03.541Z,97.7
2019-02-16T00:16:03.497Z,98.9
2019-02-16T00:17:03.425Z,98.9
2019-02-16T00:18:03.398Z,97.3
2019-02-16T00:19:03.327Z,97.3
2019-02-16T00:20:03.908Z,98.7
2019-02-16T00:21:04.686Z,99.1
2019-02-16T00:22:03.156Z,99.8
2019-02-16T00:23:03.666Z,100.3
2019-02-16T00:24:03.340Z,100.3
2019-02-16T00:25:03.732Z,100.3
2019-02-16T00:26:03.388Z,100.5
2019-02-16T00:27:03.509Z,102.4
2019-02-16T00:28:03.607Z,102.2
2019-02-16T00:29:03.055Z,101.2
2019-02-16T00:30:03.129Z,101
2019-02-16T00:31:02.968Z,100.1
2019-02-16T00:32:03.407Z,99.4
2019-02-16T00:33:03.163Z,100.8
2019-02-16T00:34:02.883Z,99.8
2019-02-16T00:35:03.452Z,102.4
2019-02-16T00:36:03.343Z,102.9
2019-02-16T00:37:03.479Z,101.7
2019-02-16T00:38:03.226Z,101.7
2019-02-16T00:39:03.839Z,101.7
2019-02-16T00:40:03.185Z,102.2
2019-02-16T00:41:03.623Z,102.2
2019-02-16T00:42:03.607Z,102.9
2019-02-16T00:43:03.292Z,103.1
2019-02-16T00:44:03.715Z,102.6
2019-02-16T00:45:02.959Z,103.1
2019-02-16T00:46:03.625Z,104.3
2019-02-16T00:47:03.580Z,103.3
2019-02-16T00:48:02.756Z,104.5
2019-02-16T00:49:03.946Z,104.5
2019-02-16T00:50:03.223Z,104.7
2019-02-16T00:51:03.302Z,104.7
2019-02-16T00:52:03.574Z,105.2
2019-02-16T00:53:03.340Z,103.6
2019-02-16T00:54:03.318Z,101.9
2019-02-16T00:55:02.962Z,101.7
2019-02-16T00:56:03.021Z,99.4
2019-02-16T00:57:03.340Z,99.8
2019-02-16T00:58:03.421Z,99.8
2019-02-16T00:59:03.098Z,100.5
2019-02-16T01:00:03.465Z,100.3
2019-02-16T01:01:03.657Z,99.1
2019-02-16T01:02:03.246Z,99.1
2019-02-16T01:03:03.808Z,99.8
2019-02-16T01:04:03.342Z,99.8
2019-02-16T01:05:03.525Z,99.8
2019-02-16T01:06:03.005Z,99.4
2019-02-16T01:07:03.020Z,100.5
2019-02-16T01:08:03.180Z,99.1
2019-02-16T01:09:03.416Z,99.1
2019-02-16T01:10:03.356Z,100.3
2019-02-16T01:11:02.256Z,100.1
2019-02-16T01:12:03.300Z,100.1
2019-02-16T01:13:03.395Z,99.1
2019-02-16T01:14:03.281Z,98.4
2019-02-16T01:15:03.396Z,97.3
2019-02-16T01:16:04.028Z,97.5
2019-02-16T01:17:03.197Z,100.3
2019-02-16T01:18:03.588Z,101
2019-02-16T01:19:03.026Z,99.6
2019-02-16T01:20:03.543Z,99.6
2019-02-16T01:21:03.673Z,94.9
2019-02-16T01:22:03.291Z,94.9
2019-02-16T01:23:03.274Z,95.6
2019-02-16T01:24:03.005Z,95.6
2019-02-16T01:25:03.109Z,94.9
2019-02-16T01:26:03.926Z,94.9
2019-02-16T01:27:03.449Z,95.4
2019-02-16T01:28:02.971Z,95.6
2019-02-16T01:29:03.814Z,95.2
2019-02-16T01:30:03.189Z,95.2
2019-02-16T01:31:03.756Z,95.4
2019-02-16T01:32:03.752Z,96.1
2019-02-16T01:33:02.946Z,95.6
2019-02-16T01:34:03.560Z,95.6
2019-02-16T01:35:02.934Z,95.9
2019-02-16T01:36:02.951Z,95.6
2019-02-16T01:37:03.451Z,95.6
2019-02-16T01:38:02.805Z,96.1
2019-02-16T01:39:03.120Z,96.1
2019-02-16T01:40:03.592Z,95.6
2019-02-16T01:41:03.762Z,95.2
2019-02-16T01:42:03.178Z,95.2
2019-02-16T01:43:03.406Z,94.7
2019-02-16T01:44:03.380Z,93.8
2019-02-16T01:45:03.387Z,93.8
2019-02-16T01:46:03.491Z,95.2
2019-02-16T01:47:03.371Z,94.5
2019-02-16T01:48:03.363Z,94.5
2019-02-16T01:49:03.518Z,94.2
2019-02-16T01:50:03.812Z,94.2
2019-02-16T01:51:03.218Z,95.2
2019-02-16T01:52:03.405Z,96.8
2019-02-16T01:53:03.406Z,96.8
2019-02-16T01:54:03.401Z,96.8
2019-02-16T01:55:03.688Z,97
2019-02-16T01:56:03.402Z,99.4
2019-02-16T01:57:02.921Z,99.4
2019-02-16T01:58:03.873Z,99.1
2019-02-16T01:59:03.674Z,97.7
2019-02-16T02:00:03.634Z,97
2019-02-16T02:01:02.928Z,97
2019-02-16T02:02:03.557Z,98.4
2019-02-16T02:03:02.911Z,98.4
2019-02-16T02:04:03.533Z,98.2
2019-02-16T02:05:03.688Z,100.3
2019-02-16T02:06:03.274Z,96.6
2019-02-16T02:07:03.598Z,100.1
2019-02-16T02:08:03.443Z,99.4
2019-02-16T02:09:03.609Z,98.9
2019-02-16T02:10:03.040Z,98.9
2019-02-16T02:11:03.538Z,96.8
2019-02-16T02:12:03.016Z,98.7
2019-02-16T02:13:03.554Z,99.4
2019-02-16T02:14:03.085Z,99.4
2019-02-16T02:15:03.733Z,100.5
2019-02-16T02:16:03.394Z,100.5
2019-02-16T02:17:03.048Z,99.8
2019-02-16T02:18:03.042Z,99.8
2019-02-16T02:19:03.149Z,100.3
2019-02-16T02:20:03.781Z,102.2
2019-02-16T02:21:03.422Z,102.2
2019-02-16T02:22:03.686Z,103.6
2019-02-16T02:23:03.173Z,102.6
2019-02-16T02:24:03.365Z,101.2
2019-02-16T02:25:03.012Z,101.2
2019-02-16T02:26:03.413Z,101.9
2019-02-16T02:27:02.737Z,101.7
2019-02-16T02:28:03.213Z,101.2
2019-02-16T02:29:03.585Z,101.2
2019-02-16T02:30:03.147Z,101
2019-02-16T02:31:03.303Z,101.7
2019-02-16T02:32:02.976Z,102.4
2019-02-16T02:33:03.668Z,100.5
2019-02-16T02:34:02.733Z,102.6
2019-02-16T02:35:03.142Z,100.8
2019-02-16T02:36:03.981Z,101.2
2019-02-16T02:37:03.176Z,101.5
2019-02-16T02:38:03.920Z,101.5
2019-02-16T02:39:03.074Z,101
2019-02-16T02:40:03.936Z,101
2019-02-16T02:41:03.077Z,101.2
2019-02-16T02:42:03.565Z,101.5
2019-02-16T02:43:02.903Z,101
2019-02-16T02:44:03.011Z,99.6
2019-02-16T02:45:03.867Z,99.6
2019-02-16T02:46:03.272Z,98.7
2019-02-16T02:47:03.825Z,98.2
2019-02-16T02:48:03.111Z,99.4
2019-02-16T02:49:03.379Z,99.4
2019-02-16T02:50:03.869Z,98.2
2019-02-16T02:51:03.320Z,97.3
2019-02-16T02:52:02.806Z,97.3
2019-02-16T02:53:03.450Z,96.3
2019-02-16T02:54:03.806Z,94.9
2019-02-16T02:55:03.131Z,94.2
2019-02-16T02:56:03.765Z,94.2
2019-02-16T02:57:03.041Z,93.8
2019-02-16T02:58:03.639Z,94.2
2019-02-16T02:59:03.829Z,94.2
2019-02-16T03:00:03.172Z,92.8
2019-02-16T03:01:03.499Z,93.3
2019-02-16T03:02:03.420Z,93.3
2019-02-16T03:03:03.363Z,91.4
2019-02-16T03:04:03.754Z,91.4
2019-02-16T03:05:03.280Z,91.7
2019-02-16T03:06:03.768Z,89.8
2019-02-16T03:07:03.033Z,89.1
2019-02-16T03:08:03.487Z,91
2019-02-16T03:09:02.882Z,88.6
2019-02-16T03:10:03.445Z,90.5
2019-02-16T03:11:02.949Z,90.5
2019-02-16T03:12:03.591Z,88.9
2019-02-16T03:13:03.972Z,88.9
2019-02-16T03:14:03.317Z,88.2
2019-02-16T03:15:02.777Z,88.2
2019-02-16T03:16:03.587Z,86.5
2019-02-16T03:17:03.382Z,84.7
2019-02-16T03:18:03.474Z,84.4
2019-02-16T03:19:03.810Z,83.7
2019-02-16T03:20:03.404Z,83.7
2019-02-16T03:21:03.670Z,84.9
2019-02-16T03:22:03.697Z,85.4
2019-02-16T03:23:03.914Z,85.8
2019-02-16T03:24:03.013Z,85.4
2019-02-16T03:25:03.869Z,86.3
2019-02-16T03:26:02.947Z,86.3
2019-02-16T03:27:03.274Z,86.3
2019-02-16T03:28:03.136Z,86.3
2019-02-16T03:29:03.376Z,87
2019-02-16T03:30:03.712Z,86.1
2019-02-16T03:31:02.929Z,87
2019-02-16T03:32:03.469Z,88.2
2019-02-16T03:33:02.970Z,86.5
2019-02-16T03:34:03.687Z,88.6
2019-02-16T03:35:02.921Z,86.3
2019-02-16T03:36:03.248Z,86.3
2019-02-16T03:37:03.471Z,86.3
2019-02-16T03:38:03.060Z,85.8
2019-02-16T03:39:03.439Z,85.8
2019-02-16T03:40:03.113Z,87.5
2019-02-16T03:41:03.447Z,87.5
2019-02-16T03:42:03.016Z,89.6
2019-02-16T03:43:03.487Z,89.6
2019-02-16T03:44:03.857Z,89.6
2019-02-16T03:45:03.457Z,89.8
2019-02-16T03:46:03.672Z,91.9
2019-02-16T03:47:03.428Z,91.9
2019-02-16T03:48:03.395Z,92.6
2019-02-16T03:49:03.536Z,92.6
2019-02-16T03:50:03.230Z,92.6
2019-02-16T03:51:03.326Z,93.1
2019-02-16T03:52:14.576Z,93.1
2019-02-16T03:53:03.935Z,93.3
2019-02-16T03:54:02.807Z,93.3
2019-02-16T03:55:03.652Z,93.1
2019-02-16T03:56:03.799Z,93.1
2019-02-16T03:57:03.136Z,92.4
2019-02-16T03:58:03.932Z,92.8
2019-02-16T03:59:03.111Z,92.8
2019-02-16T04:00:03.766Z,92.6
2019-02-16T04:01:03.082Z,92.6
2019-02-16T04:02:03.511Z,93.5
2019-02-16T04:03:02.935Z,93.1
2019-02-16T04:04:03.700Z,93.5
2019-02-16T04:05:03.041Z,93.5
2019-02-16T04:06:03.277Z,93.3
2019-02-16T04:07:02.816Z,94.5
2019-02-16T04:08:03.480Z,94.5
2019-02-16T04:09:03.386Z,93.3
2019-02-16T04:10:03.721Z,95.2
2019-02-16T04:11:03.097Z,93.5
2019-02-16T04:12:03.421Z,93.5
2019-02-16T04:13:02.833Z,93.8
2019-02-16T04:14:03.380Z,94.5
2019-02-16T04:15:03.014Z,95.4
2019-02-16T04:16:03.512Z,95.4
2019-02-16T04:17:03.599Z,96.3
2019-02-16T04:18:03.031Z,96.3
2019-02-16T04:19:03.576Z,96.3
2019-02-16T04:20:03.447Z,96.3
2019-02-16T04:21:03.725Z,95.6
2019-02-16T04:22:03.704Z,96.3
2019-02-16T04:23:03.713Z,96.1
2019-02-16T04:24:03.416Z,95.9
2019-02-16T04:25:03.550Z,95.9
2019-02-16T04:26:02.985Z,95.6
2019-02-16T04:27:03.166Z,95.9
2019-02-16T04:28:03.718Z,95.9
2019-02-16T04:29:03.510Z,95.9
2019-02-16T04:30:03.841Z,93.8
2019-02-16T04:31:03.045Z,95.2
2019-02-16T04:32:03.524Z,95.2
2019-02-16T04:33:03.031Z,95.4
2019-02-16T04:34:03.641Z,95.6
2019-02-16T04:35:03.089Z,95.6
2019-02-16T04:36:03.995Z,95.6
2019-02-16T04:37:03.142Z,96.1
2019-02-16T04:38:03.337Z,96.3
2019-02-16T04:39:03.781Z,96.1
2019-02-16T04:40:03.371Z,96.1
2019-02-16T04:41:03.759Z,97
2019-02-16T04:42:03.193Z,97.3
2019-02-16T04:43:03.434Z,97.3
2019-02-16T04:44:03.076Z,98.2
2019-02-16T04:45:03.541Z,97.7
2019-02-16T04:46:03.109Z,99.4
2019-02-16T04:47:03.600Z,98.7
2019-02-16T04:48:03.000Z,95.9
2019-02-16T04:49:03.406Z,95.9
2019-02-16T04:50:02.965Z,95.2
2019-02-16T04:51:03.470Z,95.2
2019-02-16T04:52:03.794Z,95.6
2019-02-16T04:53:03.206Z,96.6
2019-02-16T04:54:03.441Z,98
2019-02-16T04:55:03.266Z,97.5
2019-02-16T04:56:03.323Z,98.9
2019-02-16T04:57:03.351Z,99.6
2019-02-16T04:58:03.502Z,98.4
2019-02-16T04:59:02.957Z,98.9
2019-02-16T05:00:03.560Z,98.9
2019-02-16T05:01:02.818Z,101.2
2019-02-16T05:02:03.317Z,101.2
2019-02-16T05:03:03.691Z,100.8
2019-02-16T05:04:03.285Z,101.5
2019-02-16T05:05:03.737Z,100.5
2019-02-16T05:06:03.251Z,98.4
2019-02-16T05:07:03.864Z,98.4
2019-02-16T05:08:03.213Z,99.1
2019-02-16T05:09:03.703Z,97
2019-02-16T05:10:03.233Z,99.6
2019-02-16T05:11:03.690Z,99.6
2019-02-16T05:12:02.771Z,102.2
2019-02-16T05:13:03.593Z,101.7
2019-02-16T05:14:02.896Z,101.7
2019-02-16T05:15:03.607Z,100.3
2019-02-16T05:16:02.587Z,99.4
2019-02-16T05:17:03.598Z,100.5
2019-02-16T05:18:02.985Z,100.1
2019-02-16T05:19:03.628Z,101.2
2019-02-16T05:20:03.109Z,100.8
2019-02-16T05:21:03.437Z,101
2019-02-16T05:22:03.792Z,100.8
2019-02-16T05:23:03.621Z,99.8
2019-02-16T05:24:03.155Z,99.8
2019-02-16T05:25:03.710Z,98.2
2019-02-16T05:26:03.103Z,98.9
2019-02-16T05:27:03.481Z,99.1
2019-02-16T05:28:02.890Z,97.5
2019-02-16T05:29:03.619Z,98
2019-02-16T05:30:03.174Z,96.8
2019-02-16T05:31:03.715Z,96.8
2019-02-16T05:32:03.042Z,97
2019-02-16T05:33:03.572Z,95.2
2019-02-16T05:34:03.061Z,95.4
2019-02-16T05:35:03.601Z,95.4
2019-02-16T05:36:03.715Z,96.6
2019-02-16T05:37:03.272Z,98.2
2019-02-16T05:38:03.551Z,98.2
2019-02-16T05:39:03.348Z,97.5
2019-02-16T05:40:03.592Z,98.7
2019-02-16T05:41:03.022Z,97.3
2019-02-16T05:42:03.545Z,97.3
2019-02-16T05:43:03.028Z,94.7
2019-02-16T05:44:03.705Z,93.5
2019-02-16T05:45:03.166Z,94.5
2019-02-16T05:46:03.439Z,94.5
2019-02-16T05:47:02.856Z,95.6
2019-02-16T05:48:03.627Z,94.9
2019-02-16T05:49:03.120Z,97.3
2019-02-16T05:50:03.613Z,97.7
2019-02-16T05:51:02.968Z,97.5
2019-02-16T05:52:03.397Z,97.5
2019-02-16T05:53:02.800Z,97.7
2019-02-16T05:54:03.341Z,96.1
2019-02-16T05:55:03.510Z,96.1
2019-02-16T05:56:03.539Z,96.1
2019-02-16T05:57:03.633Z,96.1
2019-02-16T05:58:03.006Z,95.9
2019-02-16T05:59:03.747Z,94.5
2019-02-16T06:00:03.257Z,94.5
2019-02-16T06:01:03.447Z,94.7
2019-02-16T06:02:03.148Z,94.7
2019-02-16T06:03:03.536Z,94.7
2019-02-16T06:04:02.894Z,94.7
2019-02-16T06:05:03.256Z,95.2
2019-02-16T06:06:03.463Z,95.4
2019-02-16T06:07:03.128Z,95.2
2019-02-16T06:08:03.219Z,94.2
2019-02-16T06:09:03.095Z,94.2
2019-02-16T06:10:03.902Z,94.2
2019-02-16T06:11:06.227Z,93.3
2019-02-16T06:12:03.789Z,92.4
2019-02-16T06:13:03.117Z,92.4
2019-02-16T06:14:03.723Z,91.2
2019-02-16T06:15:02.987Z,91
2019-02-16T06:16:03.939Z,91
2019-02-16T06:17:03.451Z,90.7
2019-02-16T06:18:03.744Z,90.7
2019-02-16T06:19:03.431Z,88.4
2019-02-16T06:20:03.246Z,88.9
2019-02-16T06:21:03.818Z,87.9
2019-02-16T06:22:02.962Z,87.7
2019-02-16T06:23:05.150Z,88.2
2019-02-16T06:24:02.930Z,89.6
2019-02-16T06:25:03.104Z,89.8
2019-02-16T06:26:03.968Z,89.8
2019-02-16T06:27:03.639Z,88.9
2019-02-16T06:28:03.088Z,89.1
2019-02-16T06:29:03.139Z,89.6
2019-02-16T06:30:03.763Z,90.3
2019-02-16T06:31:03.056Z,91.2
2019-02-16T06:32:03.375Z,92.1
2019-02-16T06:33:03.204Z,92.1
2019-02-16T06:34:03.618Z,92.1
2019-02-16T06:35:02.970Z,91.7
2019-02-16T06:36:03.507Z,91.4
2019-02-16T06:37:02.786Z,91.4
2019-02-16T06:38:03.630Z,90.5
2019-02-16T06:39:03.056Z,90.5
2019-02-16T06:40:03.910Z,90.5
2019-02-16T06:41:03.330Z,91.9
2019-02-16T06:42:03.761Z,89.1
2019-02-16T06:43:03.005Z,89.8
2019-02-16T06:44:03.752Z,89.8
2019-02-16T06:45:03.068Z,88.9
2019-02-16T06:46:03.507Z,88.9
2019-02-16T06:47:02.922Z,87.7
2019-02-16T06:48:03.394Z,87.7
2019-02-16T06:49:02.847Z,87
2019-02-16T06:50:03.397Z,87
2019-02-16T06:51:03.337Z,87.2
2019-02-16T06:52:03.883Z,86.5
2019-02-16T06:53:03.269Z,86.3
2019-02-16T06:54:02.938Z,87.2
2019-02-16T06:55:03.508Z,85.6
2019-02-16T06:56:03.736Z,85.8
2019-02-16T06:57:03.113Z,85.8
2019-02-16T06:58:03.667Z,84.9
2019-02-16T06:59:03.106Z,84.9
2019-02-16T07:00:03.632Z,84.4
2019-02-16T07:01:02.928Z,84.9
2019-02-16T07:02:03.410Z,83.7
2019-02-16T07:03:03.720Z,83.3
2019-02-16T07:04:03.647Z,83.3
2019-02-16T07:05:03.112Z,83
2019-02-16T07:06:03.600Z,83.3
2019-02-16T07:07:03.118Z,83.3
2019-02-16T07:08:03.403Z,83.3
2019-02-16T07:09:02.930Z,84
2019-02-16T07:10:03.749Z,85.6
2019-02-16T07:11:03.180Z,85.6
2019-02-16T07:12:03.343Z,84.2
2019-02-16T07:13:02.970Z,86.8
2019-02-16T07:14:03.217Z,88.4
2019-02-16T07:15:03.793Z,88.4
2019-02-16T07:16:03.761Z,87.9
2019-02-16T07:17:03.167Z,88.4
2019-02-16T07:18:03.613Z,87.9
2019-02-16T07:19:03.021Z,87.9
2019-02-16T07:20:03.680Z,88.9
2019-02-16T07:21:02.962Z,89.1
2019-02-16T07:22:03.537Z,89.3
2019-02-16T07:23:02.977Z,89.6
2019-02-16T07:24:03.476Z,89.1
2019-02-16T07:25:03.931Z,89.6
2019-02-16T07:26:05.207Z,88.2
2019-02-16T07:27:03.049Z,88.6
2019-02-16T07:28:03.384Z,88.6
2019-02-16T07:29:03.805Z,88.4
2019-02-16T07:30:03.655Z,88.4
2019-02-16T07:31:03.816Z,87.9
2019-02-16T07:32:04.042Z,88.4
2019-02-16T07:33:03.577Z,86.1
2019-02-16T07:34:02.941Z,86.1
2019-02-16T07:35:03.134Z,85.6
2019-02-16T07:36:02.946Z,85.8
2019-02-16T07:37:03.180Z,86.1
2019-02-16T07:38:03.239Z,86.1
2019-02-16T07:39:03.132Z,86.1
2019-02-16T07:40:03.496Z,86.3
2019-02-16T07:41:02.745Z,83.7
2019-02-16T07:42:02.886Z,83.7
2019-02-16T07:43:03.576Z,83.5
2019-02-16T07:44:03.911Z,83.7
2019-02-16T07:45:03.510Z,83.7
2019-02-16T07:46:02.965Z,83.7
2019-02-16T07:47:03.583Z,83.5
2019-02-16T07:48:03.839Z,85.1
2019-02-16T07:49:03.274Z,86.3
2019-02-16T07:50:03.932Z,86.3
2019-02-16T07:51:03.639Z,87.5
2019-02-16T07:52:02.907Z,87.9
2019-02-16T07:53:03.199Z,87.9
2019-02-16T07:54:02.897Z,91.2
2019-02-16T07:55:03.575Z,89.6
2019-02-16T07:56:02.895Z,91.7
2019-02-16T07:57:03.505Z,91
2019-02-16T07:58:03.016Z,91
2019-02-16T07:59:03.220Z,93.3
2019-02-16T08:00:03.716Z,94.5
2019-02-16T08:01:03.151Z,94.5
2019-02-16T08:02:03.535Z,94.2
2019-02-16T08:03:03.066Z,94.9
2019-02-16T08:04:03.151Z,95.6
2019-02-16T08:05:03.568Z,94.9
2019-02-16T08:06:02.665Z,96.6
2019-02-16T08:07:03.478Z,97
2019-02-16T08:08:02.880Z,96.3
2019-02-16T08:09:03.368Z,95.4
2019-02-16T08:10:02.990Z,95.4
2019-02-16T08:11:03.247Z,94
2019-02-16T08:12:03.598Z,94
2019-02-16T08:13:03.261Z,94.7
2019-02-16T08:14:03.600Z,96.3
2019-02-16T08:15:03.070Z,93.5
2019-02-16T08:16:03.693Z,94.2
2019-02-16T08:17:02.928Z,94.2
2019-02-16T08:18:03.359Z,95.2
2019-02-16T08:19:02.756Z,96.3
2019-02-16T08:20:03.082Z,97
2019-02-16T08:21:03.856Z,97
2019-02-16T08:22:03.244Z,99.6
2019-02-16T08:23:03.831Z,99.6
2019-02-16T08:24:03.490Z,99.1
2019-02-16T08:25:03.892Z,100.8
2019-02-16T08:26:03.140Z,100.1
2019-02-16T08:27:03.553Z,100.5
2019-02-16T08:28:03.165Z,99.6
2019-02-16T08:29:03.926Z,100.3
2019-02-16T08:30:03.120Z,100.8
2019-02-16T08:31:03.196Z,98.9
2019-02-16T08:32:03.625Z,100.5
2019-02-16T08:33:03.694Z,101.5
2019-02-16T08:34:03.747Z,101.5
2019-02-16T08:35:03.480Z,101.5
2019-02-16T08:36:03.880Z,101.7
2019-02-16T08:37:03.467Z,101.7
2019-02-16T08:38:03.191Z,99.4
2019-02-16T08:39:03.481Z,99.4
2019-02-16T08:40:03.215Z,98
2019-02-16T08:41:03.476Z,98
2019-02-16T08:42:03.531Z,98
2019-02-16T08:43:02.952Z,98.4
2019-02-16T08:44:03.781Z,98.4
2019-02-16T08:45:03.405Z,98.4
2019-02-16T08:46:03.417Z,99.1
2019-02-16T08:47:03.572Z,98.2
2019-02-16T08:48:03.526Z,98.2
2019-02-16T08:49:03.619Z,96.8
2019-02-16T08:50:03.709Z,96.1
2019-02-16T08:51:03.327Z,95.6
2019-02-16T08:52:03.839Z,95.6
2019-02-16T08:53:03.237Z,95.6
2019-02-16T08:54:03.795Z,94.5
2019-02-16T08:55:03.471Z,94.5
2019-02-16T08:56:02.976Z,95.4
2019-02-16T08:57:03.135Z,94
2019-02-16T08:58:03.470Z,94.2
2019-02-16T08:59:03.047Z,94.2
2019-02-16T09:00:03.569Z,92.4
2019-02-16T09:01:03.394Z,92.4
2019-02-16T09:02:03.428Z,91.9
2019-02-16T09:03:03.058Z,91.9
2019-02-16T09:04:03.210Z,92.1
2019-02-16T09:05:03.857Z,90.3
2019-02-16T09:06:03.122Z,89.6
2019-02-16T09:07:03.841Z,89.3
2019-02-16T09:08:03.218Z,89.3
2019-02-16T09:09:03.442Z,88.4
2019-02-16T09:10:03.976Z,88.4
2019-02-16T09:11:03.473Z,86.5
2019-02-16T09:12:06.288Z,86.5
2019-02-16T09:13:03.448Z,85.1
2019-02-16T09:14:03.821Z,84.9
2019-02-16T09:15:03.441Z,84.9
2019-02-16T09:16:03.645Z,85.8
2019-02-16T09:17:03.300Z,84.9
2019-02-16T09:18:03.651Z,84.4
2019-02-16T09:19:03.276Z,84.4
2019-02-16T09:20:03.743Z,84.9
2019-02-16T09:21:02.860Z,84.4
2019-02-16T09:22:03.332Z,82.6
2019-02-16T09:23:03.042Z,82.6
2019-02-16T09:24:03.135Z,81.4
2019-02-16T09:25:03.615Z,82.1
2019-02-16T09:26:02.859Z,82.1
2019-02-16T09:27:03.790Z,81.4
2019-02-16T09:28:03.074Z,82.1
2019-02-16T09:29:03.578Z,81.9
2019-02-16T09:30:03.003Z,81.9
2019-02-16T09:31:03.810Z,81.9
2019-02-16T09:32:03.149Z,83.3
2019-02-16T09:33:03.607Z,82.6
2019-02-16T09:34:03.148Z,82.6
2019-02-16T09:35:03.520Z,83
2019-02-16T09:36:03.206Z,83
2019-02-16T09:37:03.265Z,82.6
2019-02-16T09:38:03.731Z,85.6
2019-02-16T09:39:03.334Z,85.6
2019-02-16T09:40:03.041Z,87
2019-02-16T09:41:02.841Z,87
2019-02-16T09:42:03.729Z,87.7
2019-02-16T09:43:03.097Z,87.7
2019-02-16T09:44:03.817Z,89.8
2019-02-16T09:45:02.928Z,89.8
2019-02-16T09:46:03.918Z,91.2
2019-02-16T09:47:03.521Z,90.7
2019-02-16T09:48:03.457Z,91.4
2019-02-16T09:49:02.959Z,91.7
2019-02-16T09:50:03.452Z,91.7
2019-02-16T09:51:03.008Z,91.2
2019-02-16T09:52:03.731Z,91.2
2019-02-16T09:53:03.271Z,89.3
2019-02-16T09:54:08.999Z,89.3
2019-02-16T09:55:03.232Z,89.8
2019-02-16T09:56:02.774Z,90
2019-02-16T09:57:03.701Z,90
2019-02-16T09:58:03.422Z,91
2019-02-16T09:59:02.779Z,91.9
2019-02-16T10:00:03.048Z,92.6
2019-02-16T10:01:03.711Z,92.6
2019-02-16T10:02:03.229Z,93.3
2019-02-16T10:03:03.760Z,94.5
2019-02-16T10:04:03.194Z,94.7
2019-02-16T10:05:02.848Z,94.7
2019-02-16T10:06:03.329Z,94.5
2019-02-16T10:07:03.647Z,95.2
2019-02-16T10:08:02.982Z,96.8
2019-02-16T10:09:03.820Z,95.9
2019-02-16T10:10:02.869Z,97.5
2019-02-16T10:11:03.363Z,99.4
2019-02-16T10:12:02.937Z,100.1
2019-02-16T10:13:03.326Z,101.7
2019-02-16T10:14:03.060Z,101.7
2019-02-16T10:15:03.520Z,101.2
2019-02-16T10:16:03.818Z,101.2
2019-02-16T10:17:03.441Z,100.3
2019-02-16T10:18:02.927Z,100.3
2019-02-16T10:19:03.001Z,99.6
2019-02-16T10:20:03.877Z,99.1
2019-02-16T10:21:03.092Z,99.1
2019-02-16T10:22:02.981Z,100.3
2019-02-16T10:23:03.049Z,100.3
2019-02-16T10:24:03.673Z,99.1
2019-02-16T10:25:03.203Z,99.1
2019-02-16T10:26:03.786Z,97.3
2019-02-16T10:27:03.156Z,98
2019-02-16T10:28:02.997Z,98.7
2019-02-16T10:29:03.138Z,98.7
2019-02-16T10:30:03.460Z,97.5
2019-02-16T10:31:03.183Z,97.5
2019-02-16T10:32:03.485Z,97.5
2019-02-16T10:33:02.951Z,96.1
2019-02-16T10:34:03.098Z,95.4
2019-02-16T10:35:03.938Z,94.9
2019-02-16T10:36:03.409Z,94.9
2019-02-16T10:37:02.817Z,96.6
2019-02-16T10:38:03.235Z,96.3
2019-02-16T10:39:03.569Z,96.3
2019-02-16T10:40:03.052Z,95.4
2019-02-16T10:41:03.561Z,96.6
2019-02-16T10:42:03.242Z,97.7
2019-02-16T10:43:03.550Z,94.9
2019-02-16T10:44:02.842Z,93.5
2019-02-16T10:45:03.379Z,93.5
2019-02-16T10:46:03.248Z,91.7
2019-02-16T10:47:03.054Z,91.7
2019-02-16T10:48:03.580Z,92.6
2019-02-16T10:49:03.360Z,92.6
2019-02-16T10:50:03.831Z,92.6
2019-02-16T10:51:03.151Z,94
2019-02-16T10:52:03.646Z,94
2019-02-16T10:53:03.035Z,95.4
2019-02-16T10:54:03.527Z,95.4
2019-02-16T10:55:03.985Z,97.3
2019-02-16T10:56:03.426Z,97.3
2019-02-16T10:57:03.778Z,98.4
2019-02-16T10:58:03.376Z,97.7
2019-02-16T10:59:03.663Z,97.3
2019-02-16T11:00:03.247Z,97.3
2019-02-16T11:01:03.477Z,99.4
2019-02-16T11:02:03.195Z,98.4
2019-02-16T11:03:03.359Z,98.4
2019-02-16T11:04:03.439Z,100.1
2019-02-16T11:05:02.520Z,98
2019-02-16T11:06:03.209Z,97
2019-02-16T11:07:03.753Z,97
2019-02-16T11:08:02.878Z,95.4
2019-02-16T11:09:03.267Z,95.4
2019-02-16T11:10:03.053Z,94.5
2019-02-16T11:11:03.237Z,94.5
2019-02-16T11:12:03.510Z,94.2
2019-02-16T11:13:02.802Z,94.2
2019-02-16T11:14:03.484Z,93.8
2019-02-16T11:15:03.272Z,97.3
2019-02-16T11:16:02.742Z,97.3
2019-02-16T11:17:03.088Z,100.1
2019-02-16T11:18:03.603Z,100.1
2019-02-16T11:19:03.138Z,100.8
2019-02-16T11:20:03.786Z,100.8
2019-02-16T11:21:03.134Z,98.9
2019-02-16T11:22:04.769Z,99.8
2019-02-16T11:23:02.973Z,99.8
2019-02-16T11:24:03.197Z,100.1
2019-02-16T11:25:03.133Z,101.5
2019-02-16T11:26:03.571Z,102.9
2019-02-16T11:27:03.162Z,102.9
2019-02-16T11:28:03.659Z,102.6
2019-02-16T11:29:03.126Z,102.4
2019-02-16T11:30:03.747Z,103.1
2019-02-16T11:31:03.128Z,103.1
2019-02-16T11:32:03.603Z,103.8
2019-02-16T11:33:03.345Z,103.3
2019-02-16T11:34:03.531Z,103.3
2019-02-16T11:35:02.967Z,103.3
2019-02-16T11:36:03.257Z,102.4
2019-02-16T11:37:03.591Z,102.4
2019-02-16T11:38:03.161Z,102.4
2019-02-16T11:39:03.461Z,104
2019-02-16T11:40:03.055Z,105.4
2019-02-16T11:41:03.353Z,105.7
2019-02-16T11:42:03.005Z,105.7
2019-02-16T11:43:03.438Z,105
2019-02-16T11:44:03.520Z,105.4
2019-02-16T11:45:03.513Z,105.9
2019-02-16T11:46:02.775Z,106.1
2019-02-16T11:47:03.550Z,106.1
2019-02-16T11:48:03.852Z,105.2
2019-02-16T11:49:03.312Z,105.2
2019-02-16T11:50:03.788Z,105.4
2019-02-16T11:51:03.344Z,105.7
2019-02-16T11:52:03.656Z,105
2019-02-16T11:53:02.819Z,104.5
2019-02-16T11:54:03.316Z,104.5
2019-02-16T11:55:03.299Z,104.7
2019-02-16T11:56:03.494Z,104
2019-02-16T11:57:02.887Z,101.7
2019-02-16T11:58:03.492Z,101.7
2019-02-16T11:59:03.185Z,101.9
2019-02-16T12:00:03.182Z,102.2
2019-02-16T12:01:03.055Z,100.8
2019-02-16T12:02:03.300Z,100.8
2019-02-16T12:03:02.857Z,101.2
2019-02-16T12:04:03.360Z,99.4
2019-02-16T12:05:03.862Z,99.4
2019-02-16T12:06:03.204Z,99.6
2019-02-16T12:07:03.917Z,101.9
2019-02-16T12:08:02.995Z,103.3
2019-02-16T12:09:03.473Z,103.3
2019-02-16T12:10:02.972Z,104.7
2019-02-16T12:11:03.649Z,105.7
2019-02-16T12:12:03.875Z,104
2019-02-16T12:13:02.837Z,104
2019-02-16T12:14:03.390Z,102.4
2019-02-16T12:15:03.533Z,102.4
2019-02-16T12:16:02.986Z,101
2019-02-16T12:17:03.534Z,97.5
2019-02-16T12:18:03.532Z,98.2
2019-02-16T12:19:03.447Z,97.7
2019-02-16T12:20:03.632Z,98.2
2019-02-16T12:21:03.504Z,98.7
2019-02-16T12:22:02.928Z,98.7
2019-02-16T12:23:03.482Z,98.2
2019-02-16T12:24:03.857Z,98.2
2019-02-16T12:25:06.682Z,99.1
2019-02-16T12:26:02.942Z,100.8
2019-02-16T12:27:03.067Z,100.1
2019-02-16T12:28:02.936Z,101
2019-02-16T12:29:03.565Z,101
2019-02-16T12:30:03.908Z,100.3
2019-02-16T12:31:03.195Z,100.3
2019-02-16T12:32:02.841Z,100.1
2019-02-16T12:33:03.228Z,100.1
2019-02-16T12:34:03.629Z,100.1
2019-02-16T12:35:03.809Z,102.2
2019-02-16T12:36:02.945Z,102.2
2019-02-16T12:37:03.799Z,100.8
2019-02-16T12:38:02.595Z,98.9
2019-02-16T12:39:05.385Z,98
2019-02-16T12:40:03.008Z,98
2019-02-16T12:41:03.237Z,97.7
2019-02-16T12:42:03.511Z,97.5
2019-02-16T12:43:03.205Z,98.7
2019-02-16T12:44:03.739Z,98.7
2019-02-16T12:45:03.334Z,101
2019-02-16T12:46:03.498Z,100.5
2019-02-16T12:47:03.112Z,100.5
2019-02-16T12:48:03.744Z,101.2
2019-02-16T12:49:02.946Z,101.2
2019-02-16T12:50:03.805Z,101.2
2019-02-16T12:51:03.253Z,99.8
2019-02-16T12:52:03.299Z,99.6
2019-02-16T12:53:03.737Z,99.6
2019-02-16T12:54:03.208Z,101
2019-02-16T12:55:02.974Z,99.1
2019-02-16T12:56:03.413Z,101.2
2019-02-16T12:57:03.063Z,101.2
2019-02-16T12:58:02.801Z,102.6
2019-02-16T12:59:03.555Z,102.2
2019-02-16T13:00:03.017Z,102.2
2019-02-16T13:01:03.822Z,102.6
2019-02-16T13:02:03.809Z,102.6
2019-02-16T13:03:03.695Z,102.9
2019-02-16T13:04:03.923Z,102.9
2019-02-16T13:05:03.534Z,101.9
2019-02-16T13:06:03.620Z,102.6
2019-02-16T13:07:03.291Z,102.6
2019-02-16T13:08:03.726Z,101.5
2019-02-16T13:09:03.430Z,100.8
2019-02-16T13:10:03.738Z,99.8
2019-02-16T13:11:03.320Z,99.8
2019-02-16T13:12:03.507Z,99.4
2019-02-16T13:13:03.583Z,100.1
2019-02-16T13:14:03.153Z,100.5
2019-02-16T13:15:02.830Z,100.5